Latest Weather Observations for Jabiru

IDD60801

Issued at 10:01 am CST Monday 6 July 2015 (issued every 30 minutes, with the page automatically refreshed every 10 minutes)

About weather observations | Map of weather stations | Latest weather observations for NT | Other Formats
Station Details ID: 014198 Name: JABIRU AIRPORT Lat: -12.66 Lon: 132.89 Height: 26.5 m
Data from the previous 72 hours. | See also: Recent months at Jabiru
Date/Time
CST
Temp
°C
App
Temp
°C
Dew
Point
Rel
Hum
%
Delta-T
°C
Wind Press
QNH
hPa
Press
MSL
hPa
Rain
since 9 am
mm
Dir
 
Spd
km/h
Gust
km/h
Spd
kts
Gust
kts
06/10:00am 27.6 27.0 17.5 54 6.4 E 17 28 9 15 1014.6 1014.4 0.0
06/09:30am 26.3 26.1 17.6 58 5.5 E 15 22 8 12 1014.7 1014.5 0.0
06/09:00am 25.6 25.9 18.0 63 4.8 E 13 17 7 9 1014.6 1014.4 0.0
06/08:30am 24.4 25.5 17.9 67 4.1 NE 9 11 5 6 1014.6 1014.4 0.0
06/08:00am 22.0 23.2 16.9 73 3.1 NE 6 11 3 6 1014.3 1014.1 0.0
06/07:30am 21.3 22.0 17.1 77 2.6 ESE 9 11 5 6 1014.1 1013.9 0.0
06/07:00am 19.9 20.9 16.3 80 2.2 E 6 7 3 4 1013.8 1013.6 0.0
06/06:30am 19.1 20.7 16.0 82 1.8 E 2 7 1 4 1013.7 1013.5 0.0
06/06:00am 19.7 21.7 16.0 79 2.2 CALM 0 0 0 0 1013.5 1013.3 0.0
06/05:30am 19.6 21.7 16.3 81 2.0 CALM 0 0 0 0 1013.5 1013.3 0.0
06/05:00am 19.8 21.8 16.1 79 2.2 CALM 0 0 0 0 1013.4 1013.2 0.0
06/04:30am 20.1 22.0 16.7 81 2.1 WNW 2 6 1 3 1013.1 1012.9 0.0
06/04:00am 20.3 21.5 16.9 81 2.1 WNW 6 7 3 4 1013.1 1012.9 0.0
06/03:30am 20.2 22.3 16.2 78 2.4 CALM 0 0 0 0 1013.2 1013.0 0.0
06/03:00am 20.5 22.5 16.1 76 2.6 CALM 0 0 0 0 1013.1 1012.9 0.0
06/02:30am 21.2 23.4 16.4 74 2.9 CALM 0 0 0 0 1013.2 1013.0 0.0
06/02:00am 21.6 23.9 16.8 74 2.9 CALM 0 0 0 0 1013.2 1013.0 0.0
06/01:30am 21.8 23.1 17.0 74 2.9 SSW 6 9 3 5 1013.4 1013.2 0.0
06/01:00am 22.0 23.8 16.5 71 3.3 SSW 2 7 1 4 1013.4 1013.2 0.0
06/12:30am 22.6 23.8 16.9 70 3.5 SSW 6 9 3 5 1013.6 1013.4 0.0
06/12:00am 23.1 25.0 16.6 67 4.0 W 2 6 1 3 1013.7 1013.5 0.0
 
Date/Time
CST
Temp
°C
App
Temp
°C
Dew
Point
Rel
Hum
%
Delta-T
°C
Wind Press
QNH
hPa
Press
MSL
hPa
Rain
since 9 am
mm
Dir
 
Spd
km/h
Gust
km/h
Spd
kts
Gust
kts
05/11:30pm 23.9 25.9 16.9 65 4.3 E 2 6 1 3 1014.0 1013.8 0.0
05/11:00pm 24.4 25.0 16.9 63 4.6 NW 9 11 5 6 1013.7 1013.5 0.0
05/10:30pm 25.1 25.5 16.3 58 5.4 WNW 9 13 5 7 1013.9 1013.7 0.0
05/10:00pm 26.0 26.2 14.8 50 6.7 NW 7 11 4 6 1014.0 1013.8 0.0
05/09:30pm 26.9 28.3 14.3 46 7.5 CALM 0 0 0 0 1013.8 1013.6 0.0
05/09:00pm 27.3 27.4 14.0 44 7.9 ENE 6 7 3 4 1013.5 1013.3 0.0
05/08:30pm 27.3 27.2 14.0 44 7.9 E 7 9 4 5 1013.2 1013.0 0.0
05/08:00pm 27.9 27.8 13.8 42 8.4 E 7 11 4 6 1012.8 1012.6 0.0
05/07:30pm 27.5 27.1 13.1 41 8.5 ESE 7 11 4 6 1012.4 1012.2 0.0
05/07:00pm 27.7 27.4 13.3 41 8.5 ESE 7 11 4 6 1012.1 1011.9 0.0
05/06:30pm 28.6 28.2 12.5 37 9.4 E 6 9 3 5 1011.9 1011.7 0.0
05/06:00pm 30.1 29.4 12.1 33 10.5 E 7 13 4 7 1011.6 1011.4 0.0
05/05:30pm 31.2 29.2 11.6 30 11.4 ENE 13 17 7 9 1011.3 1011.1 0.0
05/05:00pm 31.2 30.4 11.6 30 11.4 NNE 7 11 4 6 1011.2 1011.0 0.0
05/04:30pm 31.1 30.1 11.0 29 11.6 E 7 13 4 7 1011.3 1011.1 0.0
05/04:00pm 31.8 29.7 11.0 28 12.1 ENE 13 19 7 10 1011.2 1011.0 0.0
05/03:30pm 32.0 30.1 11.7 28 11.9 E 13 24 7 13 1011.4 1011.2 0.0
05/03:00pm 31.8 31.2 11.6 29 11.8 SSE 6 13 3 7 1011.6 1011.4 0.0
05/02:30pm 32.0 30.3 12.3 30 11.7 ENE 13 20 7 11 1012.0 1011.8 0.0
05/02:00pm 31.3 30.0 12.6 31 11.1 S 11 19 6 10 1012.2 1012.0 0.0
05/01:30pm 30.5 29.0 11.9 31 10.9 SE 11 19 6 10 1012.7 1012.5 0.0
05/01:00pm 30.5 28.2 11.9 31 10.9 E 15 22 8 12 1013.1 1012.9 0.0
05/12:30pm 30.5 28.6 11.9 31 10.9 ESE 13 20 7 11 1013.5 1013.3 0.0
05/12:00pm 29.4 27.8 12.8 36 9.8 ESE 13 22 7 12 1014.1 1013.9 0.0
05/11:30am 29.2 28.6 13.4 38 9.4 ENE 9 17 5 9 1014.8 1014.6 0.0
05/11:00am 28.7 27.5 14.1 40 8.8 E 13 20 7 11 1015.2 1015.0 0.0
05/10:30am 27.6 25.3 14.6 45 7.8 ENE 20 26 11 14 1015.4 1015.2 0.0
05/10:00am 25.6 25.6 16.2 56 5.8 ESE 11 17 6 9 1015.6 1015.4 0.0
05/09:30am 24.9 24.8 16.9 61 4.9 ESE 13 20 7 11 1015.7 1015.5 0.0
05/09:00am 23.4 24.8 17.8 71 3.5 SE 7 11 4 6 1015.8 1015.6 0.0
05/08:30am 20.7 21.6 15.0 70 3.4 WSW 4 6 2 3 1015.9 1015.7 0.0
05/08:00am 20.4 21.0 15.2 72 3.1 S 6 7 3 4 1015.6 1015.4 0.0
05/07:30am 19.4 18.9 13.8 70 3.2 SSW 9 11 5 6 1015.3 1015.1 0.0
05/07:00am 18.5 19.6 13.4 72 2.9 CALM 0 0 0 0 1015.0 1014.8 0.0
05/06:30am 18.2 19.2 13.1 72 2.9 CALM 0 0 0 0 1014.6 1014.4 0.0
05/06:00am 18.1 18.7 13.2 73 2.8 S 2 6 1 3 1014.3 1014.1 0.0
05/05:30am 17.7 18.6 12.8 73 2.7 CALM 0 0 0 0 1014.2 1014.0 0.0
05/05:00am 17.5 17.0 12.2 71 2.9 SSW 6 9 3 5 1014.1 1013.9 0.0
05/04:30am 17.9 17.5 12.4 70 3.1 S 6 7 3 4 1013.9 1013.7 0.0
05/04:00am 18.0 18.7 12.2 69 3.2 CALM 0 11 0 6 1013.8 1013.6 0.0
05/03:30am 18.5 19.3 12.5 68 3.3 CALM 0 0 0 0 1013.7 1013.5 0.0
05/03:00am 18.7 19.4 12.2 66 3.6 CALM 0 4 0 2 1013.9 1013.7 0.0
05/02:30am 18.4 17.9 11.9 66 3.6 SSW 6 7 3 4 1014.0 1013.8 0.0
05/02:00am 18.6 18.2 12.4 67 3.5 SSE 6 9 3 5 1014.1 1013.9 0.0
05/01:30am 18.8 18.4 12.5 67 3.5 SE 6 6 3 3 1014.1 1013.9 0.0
05/01:00am 20.0 20.6 12.0 60 4.5 CALM 0 2 0 1 1014.0 1013.8 0.0
05/12:30am 19.6 19.7 11.6 60 4.4 SSW 2 6 1 3 1013.9 1013.7 0.0
05/12:00am 20.1 20.5 11.3 57 4.8 CALM 0 6 0 3 1013.7 1013.5 0.0
 
Date/Time
CST
Temp
°C
App
Temp
°C
Dew
Point
Rel
Hum
%
Delta-T
°C
Wind Press
QNH
hPa
Press
MSL
hPa
Rain
since 9 am
mm
Dir
 
Spd
km/h
Gust
km/h
Spd
kts
Gust
kts
04/11:30pm 21.4 20.4 11.1 52 5.7 WNW 7 11 4 6 1013.7 1013.5 0.0
04/11:00pm 22.3 20.7 11.4 50 6.1 NNW 11 15 6 8 1013.6 1013.4 0.0
04/10:30pm 21.9 21.4 12.2 54 5.5 W 6 7 3 4 1013.7 1013.5 0.0
04/10:00pm 22.6 22.6 12.3 52 5.8 ENE 4 6 2 3 1013.6 1013.4 0.0
04/09:30pm 22.8 23.3 11.5 49 6.3 CALM 0 0 0 0 1013.6 1013.4 0.0
04/09:00pm 23.1 23.6 11.5 48 6.5 CALM 0 0 0 0 1013.4 1013.2 0.0
04/08:30pm 24.0 23.3 11.3 45 7.1 ENE 6 7 3 4 1013.1 1012.9 0.0
04/08:00pm 23.5 22.5 10.2 43 7.3 ENE 6 9 3 5 1012.7 1012.5 0.0
04/07:30pm 25.5 24.6 10.5 39 8.4 ENE 6 7 3 4 1012.2 1012.0 0.0
04/07:00pm 26.8 25.6 9.6 34 9.5 ENE 6 7 3 4 1011.9 1011.7 0.0
04/06:30pm 27.9 26.6 9.2 31 10.3 ENE 6 7 3 4 1011.7 1011.5 0.0
04/06:00pm 29.5 27.5 8.5 27 11.6 E 9 15 5 8 1011.3 1011.1 0.0
04/05:30pm 30.3 28.3 8.7 26 12.0 ENE 9 17 5 9 1011.1 1010.9 0.0
04/05:00pm 30.8 29.0 7.9 24 12.6 ENE 7 11 4 6 1010.9 1010.7 0.0
04/04:30pm 30.9 29.4 8.6 25 12.4 S 6 13 3 7 1010.9 1010.7 0.0
04/04:00pm 30.8 28.6 7.9 24 12.6 SE 9 17 5 9 1010.9 1010.7 0.0
04/03:30pm 30.7 27.6 7.2 23 12.8 SE 13 22 7 12 1011.0 1010.8 0.0
04/03:00pm 30.9 28.8 6.7 22 13.0 WSW 7 15 4 8 1011.2 1011.0 0.0
04/02:30pm 31.0 28.2 6.8 22 13.1 E 11 19 6 10 1011.6 1011.4 0.0
04/02:00pm 30.1 27.2 6.7 23 12.5 SE 11 24 6 13 1012.1 1011.9 0.0
04/01:30pm 30.0 26.5 7.2 24 12.3 E 15 26 8 14 1012.5 1012.3 0.0
04/01:00pm 29.6 26.0 6.9 24 12.2 ESE 15 28 8 15 1013.1 1012.9 0.0
04/12:30pm 28.4 24.6 7.6 27 11.2 ESE 17 28 9 15 1013.6 1013.4 0.0
04/12:00pm 28.5 25.0 8.7 29 10.9 E 17 24 9 13 1014.3 1014.1 0.0
04/11:30am 27.8 24.0 7.6 28 10.8 ESE 17 32 9 17 1014.9 1014.7 0.0
04/11:00am 27.2 22.6 8.1 30 10.3 E 22 32 12 17 1015.2 1015.0 0.0
04/10:30am 26.6 22.4 8.1 31 10.0 E 20 32 11 17 1015.6 1015.4 0.0
04/10:00am 25.7 21.8 10.7 39 8.4 E 22 32 12 17 1016.1 1015.9 0.0
04/09:30am 24.3 23.0 13.8 52 6.2 ESE 13 20 7 11 1016.3 1016.1 0.0
04/09:00am 22.9 22.2 14.2 58 5.1 E 11 17 6 9 1016.4 1016.2 0.0
04/08:30am 21.8 21.2 14.7 64 4.2 ESE 11 15 6 8 1016.1 1015.9 0.0
04/08:00am 20.5 20.6 14.4 68 3.6 ESE 7 11 4 6 1015.9 1015.7 0.0
04/07:30am 19.2 19.4 14.2 73 2.9 SE 6 9 3 5 1015.6 1015.4 0.0
04/07:00am 18.0 17.8 12.9 72 2.9 ENE 6 7 3 4 1015.5 1015.3 0.0
04/06:30am 18.6 17.8 12.8 69 3.3 E 9 11 5 6 1015.1 1014.9 0.0
04/06:00am 19.2 17.9 12.5 65 3.7 E 11 15 6 8 1014.9 1014.7 0.0
04/05:30am 19.1 17.6 11.9 63 4.0 ESE 11 13 6 7 1014.9 1014.7 0.0
04/05:00am 19.4 17.7 11.2 59 4.5 ESE 11 15 6 8 1014.8 1014.6 0.0
04/04:30am 19.6 17.7 10.6 56 4.9 E 11 15 6 8 1014.6 1014.4 0.0
04/04:00am 19.6 17.6 10.3 55 5.0 E 11 13 6 7 1014.6 1014.4 0.0
04/03:30am 19.9 18.3 10.3 54 5.2 E 9 11 5 6 1014.6 1014.4 0.0
04/03:00am 20.3 18.8 10.4 53 5.4 E 9 11 5 6 1014.7 1014.5 0.0
04/02:30am 20.9 19.7 10.4 51 5.7 E 7 11 4 6 1014.8 1014.6 0.0
04/02:00am 21.9 20.9 10.4 48 6.3 ESE 6 9 3 5 1014.8 1014.6 0.0
04/01:30am 22.6 21.1 10.4 46 6.7 ESE 9 15 5 8 1014.8 1014.6 0.0
04/01:00am 22.5 21.0 10.6 47 6.6 E 9 15 5 8 1014.7 1014.5 0.0
04/12:30am 22.4 21.2 10.2 46 6.7 E 7 11 4 6 1014.7 1014.5 0.0
04/12:00am 22.8 21.0 9.6 43 7.1 E 9 13 5 7 1014.9 1014.7 0.0
 
Date/Time
CST
Temp
°C
App
Temp
°C
Dew
Point
Rel
Hum
%
Delta-T
°C
Wind Press
QNH
hPa
Press
MSL
hPa
Rain
since 9 am
mm
Dir
 
Spd
km/h
Gust
km/h
Spd
kts
Gust
kts
03/11:30pm 22.9 21.3 10.3 45 6.9 ESE 9 15 5 8 1015.0 1014.8 0.0
03/11:00pm 22.7 22.0 11.4 49 6.3 E 6 7 3 4 1014.9 1014.7 0.0
03/10:30pm 23.6 22.9 11.3 46 6.9 ESE 6 9 3 5 1014.8 1014.6 0.0
03/10:00pm 24.0 23.3 11.3 45 7.1 ESE 6 9 3 5 1014.7 1014.5 0.0
03/09:30pm 24.1 23.4 11.4 45 7.1 SE 6 9 3 5 1014.6 1014.4 0.0
03/09:00pm 24.6 23.8 11.2 43 7.5 SE 6 7 3 4 1014.2 1014.0 0.0
03/08:30pm 25.3 24.5 11.1 41 8.0 ESE 6 7 3 4 1013.9 1013.7 0.0
03/08:00pm 25.8 24.4 10.8 39 8.4 ESE 9 11 5 6 1013.5 1013.3 0.0
03/07:30pm 26.1 24.9 10.3 37 8.8 SSE 7 9 4 5 1013.2 1013.0 0.0
03/07:00pm 27.0 26.0 10.2 35 9.4 ESE 6 7 3 4 1012.9 1012.7 0.0
03/06:30pm 28.2 27.1 9.9 32 10.2 S 6 9 3 5 1012.5 1012.3 0.0
03/06:00pm 29.6 27.7 9.2 28 11.4 SE 9 11 5 6 1012.1 1011.9 0.0
03/05:30pm 30.6 28.7 8.9 26 12.1 SSE 9 15 5 8 1011.9 1011.7 0.0
03/05:00pm 31.4 29.1 9.0 25 12.6 SE 11 20 6 11 1011.8 1011.6 0.0
03/04:30pm 31.6 29.2 8.6 24 12.8 SE 11 19 6 10 1011.8 1011.6 0.0
03/04:00pm 31.6 29.0 9.2 25 12.6 S 13 20 7 11 1011.9 1011.7 0.0
03/03:30pm 31.4 28.9 9.6 26 12.3 SE 13 20 7 11 1012.0 1011.8 0.0
03/03:00pm 31.4 29.9 10.7 28 11.9 SE 9 19 5 10 1012.4 1012.2 0.0
03/02:30pm 30.9 28.7 10.8 29 11.6 SE 13 24 7 13 1012.9 1012.7 0.0
03/02:00pm 31.1 28.3 11.5 30 11.4 E 17 26 9 14 1013.5 1013.3 0.0
03/01:30pm 31.4 28.1 11.7 29 11.5 E 20 28 11 15 1014.0 1013.8 0.0
03/01:00pm 30.8 28.1 11.7 31 11.1 ESE 17 26 9 14 1014.5 1014.3 0.0
03/12:30pm 30.1 26.4 11.6 32 10.7 E 22 35 12 19 1015.0 1014.8 0.0
03/12:00pm 30.1 26.6 12.1 33 10.5 E 22 32 12 17 1015.5 1015.3 0.0
03/11:30am 29.5 25.3 12.4 35 10.0 ENE 26 39 14 21 1016.0 1015.8 0.0
03/11:00am 28.6 25.2 12.5 37 9.4 ESE 22 37 12 20 1016.3 1016.1 0.0
03/10:30am 27.9 23.7 13.4 40 8.6 ENE 28 39 15 21 1016.5 1016.3 0.0

Other Formats:

Comma delimited format used in spreadsheet applications
http://www.bom.gov.au/fwo/IDD60801/IDD60801.94137.axf

JavaScript Object Notation format (JSON) in row-major order
http://www.bom.gov.au/fwo/IDD60801/IDD60801.94137.json